sensor_id;sensor_type;location;lat;lon;timestamp;temperature;humidity
75372;HTU21D;63956;52.006;5.878;2023-03-01T00:01:54;0.31;59.73
75372;HTU21D;63956;52.006;5.878;2023-03-01T00:04:26;0.27;59.83
75372;HTU21D;63956;52.006;5.878;2023-03-01T00:06:55;0.23;59.93
75372;HTU21D;63956;52.006;5.878;2023-03-01T00:09:24;0.22;59.99
75372;HTU21D;63956;52.006;5.878;2023-03-01T00:11:53;0.20;60.15
75372;HTU21D;63956;52.006;5.878;2023-03-01T00:14:22;0.18;60.22
75372;HTU21D;63956;52.006;5.878;2023-03-01T00:16:51;0.17;60.14
75372;HTU21D;63956;52.006;5.878;2023-03-01T00:19:20;0.15;60.28
75372;HTU21D;63956;52.006;5.878;2023-03-01T00:21:53;0.16;60.35
75372;HTU21D;63956;52.006;5.878;2023-03-01T00:24:22;0.15;60.21
75372;HTU21D;63956;52.006;5.878;2023-03-01T00:26:53;0.15;60.36
75372;HTU21D;63956;52.006;5.878;2023-03-01T00:29:22;0.16;60.34
75372;HTU21D;63956;52.006;5.878;2023-03-01T00:31:52;0.14;60.44
75372;HTU21D;63956;52.006;5.878;2023-03-01T00:34:21;0.10;60.47
75372;HTU21D;63956;52.006;5.878;2023-03-01T00:36:52;0.08;60.51
75372;HTU21D;63956;52.006;5.878;2023-03-01T00:39:21;0.06;60.56
75372;HTU21D;63956;52.006;5.878;2023-03-01T00:41:50;0.04;60.62
75372;HTU21D;63956;52.006;5.878;2023-03-01T00:44:20;0.02;60.69
75372;HTU21D;63956;52.006;5.878;2023-03-01T00:46:49;0.01;60.31
75372;HTU21D;63956;52.006;5.878;2023-03-01T00:49:18;-0.03;60.70
75372;HTU21D;63956;52.006;5.878;2023-03-01T00:51:47;-0.07;60.64
75372;HTU21D;63956;52.006;5.878;2023-03-01T00:54:19;-0.10;60.88
75372;HTU21D;63956;52.006;5.878;2023-03-01T00:56:48;-0.11;60.93
75372;HTU21D;63956;52.006;5.878;2023-03-01T00:59:17;-0.14;60.99
75372;HTU21D;63956;52.006;5.878;2023-03-01T01:01:46;-0.14;61.02
75372;HTU21D;63956;52.006;5.878;2023-03-01T01:04:15;-0.15;61.10
75372;HTU21D;63956;52.006;5.878;2023-03-01T01:06:45;-0.16;61.18
75372;HTU21D;63956;52.006;5.878;2023-03-01T01:09:19;-0.17;61.09
75372;HTU21D;63956;52.006;5.878;2023-03-01T01:11:49;-0.21;61.20
75372;HTU21D;63956;52.006;5.878;2023-03-01T01:14:19;-0.22;61.20
75372;HTU21D;63956;52.006;5.878;2023-03-01T01:16:48;-0.24;60.83
75372;HTU21D;63956;52.006;5.878;2023-03-01T01:19:17;-0.28;61.24
75372;HTU21D;63956;52.006;5.878;2023-03-01T01:21:48;-0.28;61.35
75372;HTU21D;63956;52.006;5.878;2023-03-01T01:39:00;-0.44;61.58
75372;HTU21D;63956;52.006;5.878;2023-03-01T01:41:29;-0.47;61.73
75372;HTU21D;63956;52.006;5.878;2023-03-01T01:44:12;-0.46;61.57
75372;HTU21D;63956;52.006;5.878;2023-03-01T01:46:43;-0.49;61.79
75372;HTU21D;63956;52.006;5.878;2023-03-01T01:49:19;-0.47;61.76
75372;HTU21D;63956;52.006;5.878;2023-03-01T01:51:55;-0.47;61.87
75372;HTU21D;63956;52.006;5.878;2023-03-01T01:54:33;-0.50;61.80
75372;HTU21D;63956;52.006;5.878;2023-03-01T01:57:11;-0.51;61.99
75372;HTU21D;63956;52.006;5.878;2023-03-01T01:59:44;-0.52;61.96
75372;HTU21D;63956;52.006;5.878;2023-03-01T02:02:14;-0.52;62.02
75372;HTU21D;63956;52.006;5.878;2023-03-01T02:04:43;-0.54;62.06
75372;HTU21D;63956;52.006;5.878;2023-03-01T02:07:16;-0.54;62.13
75372;HTU21D;63956;52.006;5.878;2023-03-01T02:09:50;-0.55;62.24
75372;HTU21D;63956;52.006;5.878;2023-03-01T02:12:23;-0.55;62.28
75372;HTU21D;63956;52.006;5.878;2023-03-01T02:14:53;-0.55;62.18
75372;HTU21D;63956;52.006;5.878;2023-03-01T02:17:22;-0.56;62.29
75372;HTU21D;63956;52.006;5.878;2023-03-01T02:20:01;-0.53;62.18
75372;HTU21D;63956;52.006;5.878;2023-03-01T02:22:35;-0.53;62.15
75372;HTU21D;63956;52.006;5.878;2023-03-01T02:27:51;-0.54;62.26
75372;HTU21D;63956;52.006;5.878;2023-03-01T02:30:26;-0.55;62.35
75372;HTU21D;63956;52.006;5.878;2023-03-01T02:32:56;-0.55;62.41
75372;HTU21D;63956;52.006;5.878;2023-03-01T02:35:29;-0.54;62.32
75372;HTU21D;63956;52.006;5.878;2023-03-01T02:38:00;-0.53;62.41
75372;HTU21D;63956;52.006;5.878;2023-03-01T02:40:30;-0.55;62.44
75372;HTU21D;63956;52.006;5.878;2023-03-01T02:43:00;-0.53;62.37
75372;HTU21D;63956;52.006;5.878;2023-03-01T02:45:31;-0.54;62.50
75372;HTU21D;63956;52.006;5.878;2023-03-01T02:48:01;-0.55;62.57
75372;HTU21D;63956;52.006;5.878;2023-03-01T02:50:47;-0.55;62.50
75372;HTU21D;63956;52.006;5.878;2023-03-01T02:53:27;-0.55;62.70
75372;HTU21D;63956;52.006;5.878;2023-03-01T02:56:00;-0.56;62.59
75372;HTU21D;63956;52.006;5.878;2023-03-01T02:58:29;-0.56;62.70
75372;HTU21D;63956;52.006;5.878;2023-03-01T03:01:09;-0.57;62.71
75372;HTU21D;63956;52.006;5.878;2023-03-01T03:03:40;-0.57;62.77
75372;HTU21D;63956;52.006;5.878;2023-03-01T03:06:10;-0.58;62.81
75372;HTU21D;63956;52.006;5.878;2023-03-01T03:08:40;-0.60;62.76
75372;HTU21D;63956;52.006;5.878;2023-03-01T03:11:10;-0.61;62.95
75372;HTU21D;63956;52.006;5.878;2023-03-01T03:13:39;-0.59;62.82
75372;HTU21D;63956;52.006;5.878;2023-03-01T03:16:17;-0.61;62.89
75372;HTU21D;63956;52.006;5.878;2023-03-01T03:18:46;-0.62;62.97
75372;HTU21D;63956;52.006;5.878;2023-03-01T03:21:16;-0.62;62.92
75372;HTU21D;63956;52.006;5.878;2023-03-01T03:23:44;-0.61;62.57
75372;HTU21D;63956;52.006;5.878;2023-03-01T03:26:13;-0.67;62.84
75372;HTU21D;63956;52.006;5.878;2023-03-01T03:28:43;-0.68;62.95
75372;HTU21D;63956;52.006;5.878;2023-03-01T03:31:12;-0.69;63.04
75372;HTU21D;63956;52.006;5.878;2023-03-01T03:33:44;-0.69;63.10
75372;HTU21D;63956;52.006;5.878;2023-03-01T03:36:16;-0.70;63.06
75372;HTU21D;63956;52.006;5.878;2023-03-01T03:38:45;-0.69;63.18
75372;HTU21D;63956;52.006;5.878;2023-03-01T03:41:15;-0.70;63.13
75372;HTU21D;63956;52.006;5.878;2023-03-01T03:43:44;-0.70;63.24
75372;HTU21D;63956;52.006;5.878;2023-03-01T03:46:14;-0.71;63.18
75372;HTU21D;63956;52.006;5.878;2023-03-01T03:48:46;-0.74;63.27
75372;HTU21D;63956;52.006;5.878;2023-03-01T03:51:17;-0.75;63.31
75372;HTU21D;63956;52.006;5.878;2023-03-01T03:53:48;-0.76;63.26
75372;HTU21D;63956;52.006;5.878;2023-03-01T03:56:18;-0.74;63.38
75372;HTU21D;63956;52.006;5.878;2023-03-01T03:58:52;-0.75;63.34
75372;HTU21D;63956;52.006;5.878;2023-03-01T04:01:21;-0.75;63.36
75372;HTU21D;63956;52.006;5.878;2023-03-01T04:03:53;-0.75;63.02
75372;HTU21D;63956;52.006;5.878;2023-03-01T04:06:28;-0.80;63.32
75372;HTU21D;63956;52.006;5.878;2023-03-01T04:08:57;-0.82;63.47
75372;HTU21D;63956;52.006;5.878;2023-03-01T04:11:26;-0.85;63.53
75372;HTU21D;63956;52.006;5.878;2023-03-01T04:13:58;-0.86;63.58
75372;HTU21D;63956;52.006;5.878;2023-03-01T04:16:27;-0.86;63.54
75372;HTU21D;63956;52.006;5.878;2023-03-01T04:18:59;-0.86;63.63
75372;HTU21D;63956;52.006;5.878;2023-03-01T04:21:28;-0.86;63.68
75372;HTU21D;63956;52.006;5.878;2023-03-01T04:23:57;-0.85;63.68
75372;HTU21D;63956;52.006;5.878;2023-03-01T04:26:29;-0.86;63.69
75372;HTU21D;63956;52.006;5.878;2023-03-01T04:28:58;-0.85;63.30
75372;HTU21D;63956;52.006;5.878;2023-03-01T04:31:27;-0.91;63.63
75372;HTU21D;63956;52.006;5.878;2023-03-01T04:33:59;-0.94;63.77
75372;HTU21D;63956;52.006;5.878;2023-03-01T04:36:29;-0.97;63.81
75372;HTU21D;63956;52.006;5.878;2023-03-01T04:38:58;-0.99;63.91
75372;HTU21D;63956;52.006;5.878;2023-03-01T04:41:38;-1.01;63.97
75372;HTU21D;63956;52.006;5.878;2023-03-01T04:44:09;-1.02;63.88
75372;HTU21D;63956;52.006;5.878;2023-03-01T04:46:38;-1.03;63.90
75372;HTU21D;63956;52.006;5.878;2023-03-01T04:49:10;-1.03;63.89
75372;HTU21D;63956;52.006;5.878;2023-03-01T04:51:39;-1.04;63.95
75372;HTU21D;63956;52.006;5.878;2023-03-01T04:54:09;-1.08;63.85
75372;HTU21D;63956;52.006;5.878;2023-03-01T04:56:38;-1.09;64.01
75372;HTU21D;63956;52.006;5.878;2023-03-01T04:59:07;-1.11;63.98
75372;HTU21D;63956;52.006;5.878;2023-03-01T05:01:38;-1.10;63.86
75372;HTU21D;63956;52.006;5.878;2023-03-01T05:04:13;-1.08;63.90
75372;HTU21D;63956;52.006;5.878;2023-03-01T05:06:42;-1.10;63.91
75372;HTU21D;63956;52.006;5.878;2023-03-01T05:09:11;-1.11;63.83
75372;HTU21D;63956;52.006;5.878;2023-03-01T05:11:40;-1.11;63.96
75372;HTU21D;63956;52.006;5.878;2023-03-01T05:14:10;-1.13;63.95
75372;HTU21D;63956;52.006;5.878;2023-03-01T05:16:39;-1.14;63.98
75372;HTU21D;63956;52.006;5.878;2023-03-01T05:19:08;-1.16;64.01
75372;HTU21D;63956;52.006;5.878;2023-03-01T05:21:44;-1.19;64.01
75372;HTU21D;63956;52.006;5.878;2023-03-01T05:24:26;-1.20;64.05
75372;HTU21D;63956;52.006;5.878;2023-03-01T05:26:55;-1.21;64.11
75372;HTU21D;63956;52.006;5.878;2023-03-01T05:29:26;-1.25;64.01
75372;HTU21D;63956;52.006;5.878;2023-03-01T05:31:57;-1.27;64.13
75372;HTU21D;63956;52.006;5.878;2023-03-01T05:34:29;-1.27;64.17
75372;HTU21D;63956;52.006;5.878;2023-03-01T05:37:01;-1.28;64.21
75372;HTU21D;63956;52.006;5.878;2023-03-01T05:39:31;-1.29;64.16
75372;HTU21D;63956;52.006;5.878;2023-03-01T05:42:01;-1.30;64.18
75372;HTU21D;63956;52.006;5.878;2023-03-01T05:44:30;-1.31;64.18
75372;HTU21D;63956;52.006;5.878;2023-03-01T05:47:00;-1.33;64.22
75372;HTU21D;63956;52.006;5.878;2023-03-01T05:49:29;-1.33;64.22
75372;HTU21D;63956;52.006;5.878;2023-03-01T05:52:00;-1.35;64.28
75372;HTU21D;63956;52.006;5.878;2023-03-01T05:54:29;-1.35;64.31
75372;HTU21D;63956;52.006;5.878;2023-03-01T05:56:59;-1.38;64.28
75372;HTU21D;63956;52.006;5.878;2023-03-01T05:59:28;-1.39;64.34
75372;HTU21D;63956;52.006;5.878;2023-03-01T06:01:57;-1.42;64.34
75372;HTU21D;63956;52.006;5.878;2023-03-01T06:04:26;-1.43;64.40
75372;HTU21D;63956;52.006;5.878;2023-03-01T06:06:55;-1.46;64.45
75372;HTU21D;63956;52.006;5.878;2023-03-01T06:09:27;-1.49;64.50
75372;HTU21D;63956;52.006;5.878;2023-03-01T06:11:56;-1.49;64.56
75372;HTU21D;63956;52.006;5.878;2023-03-01T06:14:25;-1.50;64.53
75372;HTU21D;63956;52.006;5.878;2023-03-01T06:16:55;-1.53;64.54
75372;HTU21D;63956;52.006;5.878;2023-03-01T06:19:24;-1.55;64.54
75372;HTU21D;63956;52.006;5.878;2023-03-01T06:21:53;-1.53;64.53
75372;HTU21D;63956;52.006;5.878;2023-03-01T06:24:22;-1.53;64.56
75372;HTU21D;63956;52.006;5.878;2023-03-01T06:26:55;-1.53;64.49
75372;HTU21D;63956;52.006;5.878;2023-03-01T06:29:24;-1.53;64.57
75372;HTU21D;63956;52.006;5.878;2023-03-01T06:31:53;-1.55;64.59
75372;HTU21D;63956;52.006;5.878;2023-03-01T06:34:23;-1.57;64.61
75372;HTU21D;63956;52.006;5.878;2023-03-01T06:36:52;-1.56;64.59
75372;HTU21D;63956;52.006;5.878;2023-03-01T06:39:21;-1.56;64.61
75372;HTU21D;63956;52.006;5.878;2023-03-01T06:41:50;-1.56;64.69
75372;HTU21D;63956;52.006;5.878;2023-03-01T06:44:22;-1.56;64.72
75372;HTU21D;63956;52.006;5.878;2023-03-01T06:46:51;-1.56;64.66
75372;HTU21D;63956;52.006;5.878;2023-03-01T06:49:20;-1.55;64.71
75372;HTU21D;63956;52.006;5.878;2023-03-01T06:51:49;-1.52;64.66
75372;HTU21D;63956;52.006;5.878;2023-03-01T06:54:18;-1.53;64.68
75372;HTU21D;63956;52.006;5.878;2023-03-01T06:56:48;-1.52;64.76
75372;HTU21D;63956;52.006;5.878;2023-03-01T06:59:21;-1.52;64.79
75372;HTU21D;63956;52.006;5.878;2023-03-01T07:01:50;-1.49;64.80
75372;HTU21D;63956;52.006;5.878;2023-03-01T07:04:19;-1.48;64.82
75372;HTU21D;63956;52.006;5.878;2023-03-01T07:06:48;-1.46;64.89
75372;HTU21D;63956;52.006;5.878;2023-03-01T07:09:21;-1.46;64.86
75372;HTU21D;63956;52.006;5.878;2023-03-01T07:11:50;-1.44;64.53
75372;HTU21D;63956;52.006;5.878;2023-03-01T07:14:22;-1.47;64.82
75372;HTU21D;63956;52.006;5.878;2023-03-01T07:16:53;-1.45;64.89
75372;HTU21D;63956;52.006;5.878;2023-03-01T07:19:22;-1.45;65.01
75372;HTU21D;63956;52.006;5.878;2023-03-01T07:21:51;-1.41;64.63
75372;HTU21D;63956;52.006;5.878;2023-03-01T07:24:21;-1.44;64.88
75372;HTU21D;63956;52.006;5.878;2023-03-01T07:26:50;-1.40;64.62
75372;HTU21D;63956;52.006;5.878;2023-03-01T07:29:22;-1.43;64.92
75372;HTU21D;63956;52.006;5.878;2023-03-01T07:31:51;-1.41;65.04
75372;HTU21D;63956;52.006;5.878;2023-03-01T07:34:21;-1.38;65.11
75372;HTU21D;63956;52.006;5.878;2023-03-01T07:36:50;-1.34;65.15
75372;HTU21D;63956;52.006;5.878;2023-03-01T07:39:19;-1.31;65.18
75372;HTU21D;63956;52.006;5.878;2023-03-01T07:41:49;-1.26;65.11
75372;HTU21D;63956;52.006;5.878;2023-03-01T07:44:24;-1.23;65.21
75372;HTU21D;63956;52.006;5.878;2023-03-01T07:46:54;-1.17;65.17
75372;HTU21D;63956;52.006;5.878;2023-03-01T07:49:24;-1.12;65.25
75372;HTU21D;63956;52.006;5.878;2023-03-01T07:51:53;-1.04;65.19
75372;HTU21D;63956;52.006;5.878;2023-03-01T07:54:22;-1.01;65.14
75372;HTU21D;63956;52.006;5.878;2023-03-01T07:56:52;-0.96;65.11
75372;HTU21D;63956;52.006;5.878;2023-03-01T07:59:24;-0.90;65.08
75372;HTU21D;63956;52.006;5.878;2023-03-01T08:01:55;-0.85;65.29
75372;HTU21D;63956;52.006;5.878;2023-03-01T08:04:24;-0.82;65.11
75372;HTU21D;63956;52.006;5.878;2023-03-01T08:06:54;-0.77;65.11
75372;HTU21D;63956;52.006;5.878;2023-03-01T08:09:23;-0.73;65.10
75372;HTU21D;63956;52.006;5.878;2023-03-01T08:11:52;-0.66;64.79
75372;HTU21D;63956;52.006;5.878;2023-03-01T08:14:24;-0.66;65.07
75372;HTU21D;63956;52.006;5.878;2023-03-01T08:16:53;-0.60;65.14
75372;HTU21D;63956;52.006;5.878;2023-03-01T08:19:22;-0.55;65.24
75372;HTU21D;63956;52.006;5.878;2023-03-01T08:21:51;-0.50;65.22
75372;HTU21D;63956;52.006;5.878;2023-03-01T08:24:20;-0.43;65.29
75372;HTU21D;63956;52.006;5.878;2023-03-01T08:26:49;-0.38;65.37
75372;HTU21D;63956;52.006;5.878;2023-03-01T08:29:19;-0.32;65.41
75372;HTU21D;63956;52.006;5.878;2023-03-01T08:31:50;-0.26;65.52
75372;HTU21D;63956;52.006;5.878;2023-03-01T08:34:20;-0.20;65.52
75372;HTU21D;63956;52.006;5.878;2023-03-01T08:36:49;-0.14;65.53
75372;HTU21D;63956;52.006;5.878;2023-03-01T08:39:21;-0.06;65.50
75372;HTU21D;63956;52.006;5.878;2023-03-01T08:41:50;0.05;65.52
75372;HTU21D;63956;52.006;5.878;2023-03-01T08:44:19;0.16;65.46
75372;HTU21D;63956;52.006;5.878;2023-03-01T08:46:51;0.27;65.37
75372;HTU21D;63956;52.006;5.878;2023-03-01T08:49:21;0.39;65.31
75372;HTU21D;63956;52.006;5.878;2023-03-01T08:51:51;0.55;65.30
75372;HTU21D;63956;52.006;5.878;2023-03-01T08:54:21;0.73;65.17
75372;HTU21D;63956;52.006;5.878;2023-03-01T08:56:51;0.91;65.21
75372;HTU21D;63956;52.006;5.878;2023-03-01T08:59:20;1.13;65.22
75372;HTU21D;63956;52.006;5.878;2023-03-01T09:01:51;1.34;65.25
75372;HTU21D;63956;52.006;5.878;2023-03-01T09:04:20;1.61;65.31
75372;HTU21D;63956;52.006;5.878;2023-03-01T09:06:50;1.86;65.29
75372;HTU21D;63956;52.006;5.878;2023-03-01T09:09:19;2.13;65.25
75372;HTU21D;63956;52.006;5.878;2023-03-01T09:11:48;2.39;65.15
75372;HTU21D;63956;52.006;5.878;2023-03-01T09:14:17;2.59;65.18
75372;HTU21D;63956;52.006;5.878;2023-03-01T09:16:46;2.78;64.83
75372;HTU21D;63956;52.006;5.878;2023-03-01T09:19:18;2.90;64.33
75372;HTU21D;63956;52.006;5.878;2023-03-01T09:21:47;3.09;64.26
75372;HTU21D;63956;52.006;5.878;2023-03-01T09:24:23;3.27;63.85
75372;HTU21D;63956;52.006;5.878;2023-03-01T09:26:56;3.45;63.56
75372;HTU21D;63956;52.006;5.878;2023-03-01T09:29:25;3.65;63.22
75372;HTU21D;63956;52.006;5.878;2023-03-01T09:31:54;3.82;62.82
75372;HTU21D;63956;52.006;5.878;2023-03-01T09:34:26;4.01;63.18
75372;HTU21D;63956;52.006;5.878;2023-03-01T09:36:57;4.09;62.27
75372;HTU21D;63956;52.006;5.878;2023-03-01T09:39:28;4.21;61.50
75372;HTU21D;63956;52.006;5.878;2023-03-01T09:42:02;4.39;61.42
75372;HTU21D;63956;52.006;5.878;2023-03-01T09:44:38;4.56;61.31
75372;HTU21D;63956;52.006;5.878;2023-03-01T09:47:12;4.68;60.70
75372;HTU21D;63956;52.006;5.878;2023-03-01T09:49:57;4.81;60.55
75372;HTU21D;63956;52.006;5.878;2023-03-01T09:52:33;4.92;60.69
75372;HTU21D;63956;52.006;5.878;2023-03-01T09:55:09;5.04;59.51
75372;HTU21D;63956;52.006;5.878;2023-03-01T09:57:45;5.17;59.72
75372;HTU21D;63956;52.006;5.878;2023-03-01T10:00:31;5.27;59.60
75372;HTU21D;63956;52.006;5.878;2023-03-01T10:03:10;5.39;58.92
75372;HTU21D;63956;52.006;5.878;2023-03-01T10:05:53;5.49;58.62
75372;HTU21D;63956;52.006;5.878;2023-03-01T10:08:40;5.59;58.38
75372;HTU21D;63956;52.006;5.878;2023-03-01T10:11:20;5.68;58.14
75372;HTU21D;63956;52.006;5.878;2023-03-01T10:13:58;5.81;57.54
75372;HTU21D;63956;52.006;5.878;2023-03-01T10:16:37;5.93;57.51
75372;HTU21D;63956;52.006;5.878;2023-03-01T10:19:12;6.04;56.81
75372;HTU21D;63956;52.006;5.878;2023-03-01T10:21:45;6.13;56.49
75372;HTU21D;63956;52.006;5.878;2023-03-01T10:24:17;6.23;55.88
75372;HTU21D;63956;52.006;5.878;2023-03-01T10:26:53;6.33;55.49
75372;HTU21D;63956;52.006;5.878;2023-03-01T10:29:26;6.41;55.63
75372;HTU21D;63956;52.006;5.878;2023-03-01T10:31:59;6.52;55.64
75372;HTU21D;63956;52.006;5.878;2023-03-01T10:34:30;6.57;54.71
75372;HTU21D;63956;52.006;5.878;2023-03-01T10:37:11;6.61;54.62
75372;HTU21D;63956;52.006;5.878;2023-03-01T10:39:55;6.66;55.26
75372;HTU21D;63956;52.006;5.878;2023-03-01T10:42:29;6.69;54.92
75372;HTU21D;63956;52.006;5.878;2023-03-01T10:45:15;6.75;54.97
75372;HTU21D;63956;52.006;5.878;2023-03-01T10:47:44;6.75;54.06
75372;HTU21D;63956;52.006;5.878;2023-03-01T10:50:20;6.82;54.91
75372;HTU21D;63956;52.006;5.878;2023-03-01T10:53:02;6.76;54.26
75372;HTU21D;63956;52.006;5.878;2023-03-01T10:55:35;6.74;53.58
75372;HTU21D;63956;52.006;5.878;2023-03-01T10:58:17;6.73;53.95
75372;HTU21D;63956;52.006;5.878;2023-03-01T11:00:49;6.71;53.43
75372;HTU21D;63956;52.006;5.878;2023-03-01T11:03:22;6.70;52.75
75372;HTU21D;63956;52.006;5.878;2023-03-01T11:06:01;6.70;52.29
75372;HTU21D;63956;52.006;5.878;2023-03-01T11:08:38;6.73;52.49
75372;HTU21D;63956;52.006;5.878;2023-03-01T11:11:21;6.75;52.02
75372;HTU21D;63956;52.006;5.878;2023-03-01T11:13:54;6.80;52.09
75372;HTU21D;63956;52.006;5.878;2023-03-01T11:16:33;6.84;51.64
75372;HTU21D;63956;52.006;5.878;2023-03-01T11:19:17;6.90;51.95
75372;HTU21D;63956;52.006;5.878;2023-03-01T11:21:54;6.96;51.55
75372;HTU21D;63956;52.006;5.878;2023-03-01T11:24:39;7.03;51.11
75372;HTU21D;63956;52.006;5.878;2023-03-01T11:27:16;7.14;50.35
75372;HTU21D;63956;52.006;5.878;2023-03-01T11:29:48;7.22;50.56
75372;HTU21D;63956;52.006;5.878;2023-03-01T11:32:21;7.34;50.24
75372;HTU21D;63956;52.006;5.878;2023-03-01T11:34:55;7.48;49.91
75372;HTU21D;63956;52.006;5.878;2023-03-01T11:37:39;7.65;49.58
75372;HTU21D;63956;52.006;5.878;2023-03-01T11:40:27;7.79;49.89
75372;HTU21D;63956;52.006;5.878;2023-03-01T11:43:15;7.90;48.88
75372;HTU21D;63956;52.006;5.878;2023-03-01T11:45:55;8.01;49.03
75372;HTU21D;63956;52.006;5.878;2023-03-01T11:48:46;8.09;48.36
75372;HTU21D;63956;52.006;5.878;2023-03-01T11:51:23;8.18;48.55
75372;HTU21D;63956;52.006;5.878;2023-03-01T11:54:05;8.28;48.01
75372;HTU21D;63956;52.006;5.878;2023-03-01T11:56:40;8.36;48.27
75372;HTU21D;63956;52.006;5.878;2023-03-01T11:59:24;8.42;47.09
75372;HTU21D;63956;52.006;5.878;2023-03-01T12:02:27;8.51;47.87
75372;HTU21D;63956;52.006;5.878;2023-03-01T12:05:18;8.61;47.25
75372;HTU21D;63956;52.006;5.878;2023-03-01T12:07:53;8.72;47.15
75372;HTU21D;63956;52.006;5.878;2023-03-01T12:10:26;8.89;47.67
75372;HTU21D;63956;52.006;5.878;2023-03-01T12:13:09;8.92;46.38
75372;HTU21D;63956;52.006;5.878;2023-03-01T12:15:57;9.00;46.14
75372;HTU21D;63956;52.006;5.878;2023-03-01T12:19:00;9.11;46.47
75372;HTU21D;63956;52.006;5.878;2023-03-01T12:21:45;9.23;45.77
75372;HTU21D;63956;52.006;5.878;2023-03-01T12:24:35;9.32;46.07
75372;HTU21D;63956;52.006;5.878;2023-03-01T12:27:22;9.37;46.44
75372;HTU21D;63956;52.006;5.878;2023-03-01T12:30:09;9.47;46.35
75372;HTU21D;63956;52.006;5.878;2023-03-01T12:32:52;9.54;46.08
75372;HTU21D;63956;52.006;5.878;2023-03-01T12:35:54;9.61;45.96
75372;HTU21D;63956;52.006;5.878;2023-03-01T12:38:33;9.63;45.80
75372;HTU21D;63956;52.006;5.878;2023-03-01T12:41:33;9.67;45.60
75372;HTU21D;63956;52.006;5.878;2023-03-01T12:44:12;9.64;45.22
75372;HTU21D;63956;52.006;5.878;2023-03-01T12:47:11;9.61;45.48
75372;HTU21D;63956;52.006;5.878;2023-03-01T12:49:46;9.62;44.48
75372;HTU21D;63956;52.006;5.878;2023-03-01T12:52:22;9.62;44.45
75372;HTU21D;63956;52.006;5.878;2023-03-01T12:54:51;9.66;45.31
75372;HTU21D;63956;52.006;5.878;2023-03-01T12:57:26;9.57;44.90
75372;HTU21D;63956;52.006;5.878;2023-03-01T13:00:10;9.56;44.27
75372;HTU21D;63956;52.006;5.878;2023-03-01T13:02:50;9.55;44.25
75372;HTU21D;63956;52.006;5.878;2023-03-01T13:05:31;9.56;44.58
75372;HTU21D;63956;52.006;5.878;2023-03-01T13:08:08;9.60;44.15
75372;HTU21D;63956;52.006;5.878;2023-03-01T13:10:42;9.65;44.30
75372;HTU21D;63956;52.006;5.878;2023-03-01T13:13:14;9.72;43.52
75372;HTU21D;63956;52.006;5.878;2023-03-01T13:15:47;9.77;43.46
75372;HTU21D;63956;52.006;5.878;2023-03-01T13:18:31;9.83;43.52
75372;HTU21D;63956;52.006;5.878;2023-03-01T13:21:02;9.89;42.86
75372;HTU21D;63956;52.006;5.878;2023-03-01T13:23:37;9.91;42.46
75372;HTU21D;63956;52.006;5.878;2023-03-01T13:26:12;9.93;42.91
75372;HTU21D;63956;52.006;5.878;2023-03-01T13:28:59;9.99;42.80
75372;HTU21D;63956;52.006;5.878;2023-03-01T13:34:43;10.11;42.68
75372;HTU21D;63956;52.006;5.878;2023-03-01T13:37:21;10.18;42.23
75372;HTU21D;63956;52.006;5.878;2023-03-01T13:39:52;10.22;41.88
75372;HTU21D;63956;52.006;5.878;2023-03-01T13:42:38;10.33;42.33
75372;HTU21D;63956;52.006;5.878;2023-03-01T13:45:21;10.41;41.41
75372;HTU21D;63956;52.006;5.878;2023-03-01T13:47:56;10.51;41.72
75372;HTU21D;63956;52.006;5.878;2023-03-01T13:50:33;10.64;41.33
75372;HTU21D;63956;52.006;5.878;2023-03-01T13:53:06;10.69;40.62
75372;HTU21D;63956;52.006;5.878;2023-03-01T13:55:40;10.78;40.46
75372;HTU21D;63956;52.006;5.878;2023-03-01T13:58:15;10.87;41.27
75372;HTU21D;63956;52.006;5.878;2023-03-01T14:00:45;10.89;40.65
75372;HTU21D;63956;52.006;5.878;2023-03-01T14:03:15;10.99;41.19
75372;HTU21D;63956;52.006;5.878;2023-03-01T14:06:03;10.98;41.02
75372;HTU21D;63956;52.006;5.878;2023-03-01T14:08:34;11.01;40.68
75372;HTU21D;63956;52.006;5.878;2023-03-01T14:11:25;11.08;40.87
75372;HTU21D;63956;52.006;5.878;2023-03-01T14:14:13;11.09;40.69
75372;HTU21D;63956;52.006;5.878;2023-03-01T14:16:52;11.12;39.81
75372;HTU21D;63956;52.006;5.878;2023-03-01T14:19:25;11.14;40.04
75372;HTU21D;63956;52.006;5.878;2023-03-01T14:22:14;11.18;40.46
75372;HTU21D;63956;52.006;5.878;2023-03-01T14:24:47;11.19;40.01
75372;HTU21D;63956;52.006;5.878;2023-03-01T14:27:18;11.20;39.99
75372;HTU21D;63956;52.006;5.878;2023-03-01T14:29:55;11.24;39.63
75372;HTU21D;63956;52.006;5.878;2023-03-01T14:32:27;11.25;39.73
75372;HTU21D;63956;52.006;5.878;2023-03-01T14:34:58;11.25;38.19
75372;HTU21D;63956;52.006;5.878;2023-03-01T14:37:32;11.23;38.83
75372;HTU21D;63956;52.006;5.878;2023-03-01T14:40:04;11.18;38.64
75372;HTU21D;63956;52.006;5.878;2023-03-01T14:42:35;11.13;39.25
75372;HTU21D;63956;52.006;5.878;2023-03-01T14:45:07;11.12;39.07
75372;HTU21D;63956;52.006;5.878;2023-03-01T14:47:36;11.08;38.57
75372;HTU21D;63956;52.006;5.878;2023-03-01T14:50:09;11.04;38.26
75372;HTU21D;63956;52.006;5.878;2023-03-01T14:52:44;11.01;38.74
75372;HTU21D;63956;52.006;5.878;2023-03-01T14:55:17;10.97;38.65
75372;HTU21D;63956;52.006;5.878;2023-03-01T14:57:48;10.92;38.14
75372;HTU21D;63956;52.006;5.878;2023-03-01T15:00:20;10.85;38.85
75372;HTU21D;63956;52.006;5.878;2023-03-01T15:02:51;10.80;38.63
75372;HTU21D;63956;52.006;5.878;2023-03-01T15:05:26;10.80;38.54
75372;HTU21D;63956;52.006;5.878;2023-03-01T15:08:01;10.78;38.38
75372;HTU21D;63956;52.006;5.878;2023-03-01T15:10:34;10.77;38.59
75372;HTU21D;63956;52.006;5.878;2023-03-01T15:13:13;10.75;38.65
75372;HTU21D;63956;52.006;5.878;2023-03-01T15:15:43;10.69;38.17
75372;HTU21D;63956;52.006;5.878;2023-03-01T15:18:16;10.64;38.69
75372;HTU21D;63956;52.006;5.878;2023-03-01T15:20:46;10.59;38.49
75372;HTU21D;63956;52.006;5.878;2023-03-01T15:23:24;10.52;38.89
75372;HTU21D;63956;52.006;5.878;2023-03-01T15:25:55;10.45;38.89
75372;HTU21D;63956;52.006;5.878;2023-03-01T15:28:30;10.41;39.24
75372;HTU21D;63956;52.006;5.878;2023-03-01T15:31:03;10.37;38.52
75372;HTU21D;63956;52.006;5.878;2023-03-01T15:33:35;10.28;39.05
75372;HTU21D;63956;52.006;5.878;2023-03-01T15:36:32;10.20;39.14
75372;HTU21D;63956;52.006;5.878;2023-03-01T15:39:04;10.12;39.11
75372;HTU21D;63956;52.006;5.878;2023-03-01T15:41:45;10.05;38.66
75372;HTU21D;63956;52.006;5.878;2023-03-01T15:44:16;10.01;39.21
75372;HTU21D;63956;52.006;5.878;2023-03-01T15:46:46;9.99;39.07
75372;HTU21D;63956;52.006;5.878;2023-03-01T15:49:26;9.96;39.38
75372;HTU21D;63956;52.006;5.878;2023-03-01T15:51:56;9.91;39.36
75372;HTU21D;63956;52.006;5.878;2023-03-01T15:54:28;9.85;39.37
75372;HTU21D;63956;52.006;5.878;2023-03-01T15:56:58;9.82;39.69
75372;HTU21D;63956;52.006;5.878;2023-03-01T15:59:27;9.75;38.87
75372;HTU21D;63956;52.006;5.878;2023-03-01T16:01:56;9.70;39.62
75372;HTU21D;63956;52.006;5.878;2023-03-01T16:04:25;9.62;39.46
75372;HTU21D;63956;52.006;5.878;2023-03-01T16:06:54;9.55;39.30
75372;HTU21D;63956;52.006;5.878;2023-03-01T16:09:23;9.49;39.30
75372;HTU21D;63956;52.006;5.878;2023-03-01T16:11:55;9.44;39.25
75372;HTU21D;63956;52.006;5.878;2023-03-01T16:14:24;9.39;39.39
75372;HTU21D;63956;52.006;5.878;2023-03-01T16:16:53;9.33;39.69
75372;HTU21D;63956;52.006;5.878;2023-03-01T16:19:22;9.27;39.68
75372;HTU21D;63956;52.006;5.878;2023-03-01T16:21:52;9.20;39.55